Terminal Aerodrome Forecast
Issued by NWS Sioux Falls, SD

Home | Current Version | Previous Version | Graphics & Text | Print | Product List | Glossary On
Versions: 1 2 3 4 5 6 7 8 9 10 11 12 13 14 15 16 17
000
FTUS43 KFSD 231732 AAB
TAFFSD
TAF AMD
KFSD 231732Z 2318/2418 34013KT P6SM VCSH BKN020 OVC030
     FM232000 35013G21KT P6SM -SHRA OVC025
     FM240000 35013KT P6SM BKN025
     FM240700 34006KT P6SM BKN015 BKN030
     FM241300 36006KT P6SM SCT020
     FM241700 04006KT P6SM SCT030=

USA.gov is the U.S. government's official web portal to all federal, state and local government web resources and services.